sensor_id;sensor_type;location;lat;lon;timestamp;pressure;altitude;pressure_sealevel;temperature;humidity
63033;BME280;49121;38.932;-9.018;2023-04-24T00:00:57;111992.50;;;-145.11;89.10
63033;BME280;49121;38.932;-9.018;2023-04-24T00:02:58;111992.50;;;-145.11;89.25
63033;BME280;49121;38.932;-9.018;2023-04-24T00:04:59;111992.50;;;-145.11;88.79
63033;BME280;49121;38.932;-9.018;2023-04-24T00:07:02;111992.50;;;-145.11;88.57
63033;BME280;49121;38.932;-9.018;2023-04-24T00:09:03;111992.50;;;-145.11;88.87
63033;BME280;49121;38.932;-9.018;2023-04-24T00:11:05;111992.50;;;-145.11;89.23
63033;BME280;49121;38.932;-9.018;2023-04-24T00:13:09;111992.50;;;-145.11;89.31
63033;BME280;49121;38.932;-9.018;2023-04-24T00:20:10;111992.50;;;-145.11;88.87
63033;BME280;49121;38.932;-9.018;2023-04-24T00:22:11;111992.50;;;-145.11;88.75
63033;BME280;49121;38.932;-9.018;2023-04-24T00:24:31;111992.50;;;-145.11;89.18
63033;BME280;49121;38.932;-9.018;2023-04-24T00:26:32;111992.50;;;-145.11;89.53
63033;BME280;49121;38.932;-9.018;2023-04-24T00:28:32;111992.50;;;-145.11;89.34
63033;BME280;49121;38.932;-9.018;2023-04-24T00:30:33;111992.50;;;-145.11;89.42
63033;BME280;49121;38.932;-9.018;2023-04-24T00:32:37;111992.50;;;-145.11;89.18
63033;BME280;49121;38.932;-9.018;2023-04-24T00:39:19;111992.50;;;-145.11;89.49
63033;BME280;49121;38.932;-9.018;2023-04-24T00:41:20;111992.50;;;-145.11;89.63
63033;BME280;49121;38.932;-9.018;2023-04-24T00:43:21;111992.50;;;-145.11;89.61
63033;BME280;49121;38.932;-9.018;2023-04-24T00:45:21;111992.50;;;-145.11;89.32
63033;BME280;49121;38.932;-9.018;2023-04-24T00:47:22;111992.50;;;-145.11;89.79
63033;BME280;49121;38.932;-9.018;2023-04-24T00:49:42;111992.50;;;-145.11;89.51
63033;BME280;49121;38.932;-9.018;2023-04-24T00:51:48;111992.50;;;-145.11;89.31
63033;BME280;49121;38.932;-9.018;2023-04-24T00:56:11;111992.50;;;-145.11;89.47
63033;BME280;49121;38.932;-9.018;2023-04-24T00:58:30;111992.50;;;-145.11;89.48
63033;BME280;49121;38.932;-9.018;2023-04-24T01:00:31;111992.50;;;-145.11;89.33
63033;BME280;49121;38.932;-9.018;2023-04-24T01:02:32;111992.50;;;-145.11;89.94
63033;BME280;49121;38.932;-9.018;2023-04-24T01:04:34;111992.50;;;-145.11;89.95
63033;BME280;49121;38.932;-9.018;2023-04-24T01:06:35;111992.50;;;-145.11;90.35
63033;BME280;49121;38.932;-9.018;2023-04-24T01:08:37;111992.50;;;-145.11;90.50
63033;BME280;49121;38.932;-9.018;2023-04-24T01:10:38;111992.50;;;-145.11;90.60
63033;BME280;49121;38.932;-9.018;2023-04-24T01:12:40;111992.50;;;-145.11;90.33
63033;BME280;49121;38.932;-9.018;2023-04-24T01:16:59;111992.50;;;-145.11;90.01
63033;BME280;49121;38.932;-9.018;2023-04-24T01:19:01;111992.50;;;-145.11;89.65
63033;BME280;49121;38.932;-9.018;2023-04-24T01:21:02;111992.50;;;-145.11;89.81
63033;BME280;49121;38.932;-9.018;2023-04-24T01:25:27;111992.50;;;-145.11;89.69
63033;BME280;49121;38.932;-9.018;2023-04-24T01:27:30;111992.50;;;-145.11;89.48
63033;BME280;49121;38.932;-9.018;2023-04-24T01:29:31;111992.50;;;-145.11;89.88
63033;BME280;49121;38.932;-9.018;2023-04-24T01:31:32;111992.50;;;-145.11;90.42
63033;BME280;49121;38.932;-9.018;2023-04-24T01:33:33;111992.50;;;-145.11;91.10
63033;BME280;49121;38.932;-9.018;2023-04-24T01:35:34;111992.50;;;-145.11;90.77
63033;BME280;49121;38.932;-9.018;2023-04-24T01:40:14;111992.50;;;-145.11;90.83
63033;BME280;49121;38.932;-9.018;2023-04-24T01:42:14;111992.50;;;-145.11;90.88
63033;BME280;49121;38.932;-9.018;2023-04-24T01:44:15;111992.50;;;-145.11;90.74
63033;BME280;49121;38.932;-9.018;2023-04-24T01:46:17;111992.50;;;-145.11;90.50
63033;BME280;49121;38.932;-9.018;2023-04-24T01:48:18;111992.50;;;-145.11;90.76
63033;BME280;49121;38.932;-9.018;2023-04-24T01:50:18;111992.50;;;-145.11;90.44
63033;BME280;49121;38.932;-9.018;2023-04-24T01:52:19;111992.50;;;-145.11;90.04
63033;BME280;49121;38.932;-9.018;2023-04-24T01:54:21;111992.50;;;-145.11;89.88
63033;BME280;49121;38.932;-9.018;2023-04-24T01:56:21;111992.50;;;-145.11;90.09
63033;BME280;49121;38.932;-9.018;2023-04-24T02:05:22;111992.50;;;-145.11;91.72
63033;BME280;49121;38.932;-9.018;2023-04-24T02:07:41;111992.50;;;-145.11;92.55
63033;BME280;49121;38.932;-9.018;2023-04-24T02:09:43;111992.50;;;-145.11;92.79
63033;BME280;49121;38.932;-9.018;2023-04-24T02:11:43;111992.50;;;-145.11;92.42
63033;BME280;49121;38.932;-9.018;2023-04-24T02:14:02;111992.50;;;-145.11;92.61
63033;BME280;49121;38.932;-9.018;2023-04-24T02:16:02;111992.50;;;-145.11;92.95
63033;BME280;49121;38.932;-9.018;2023-04-24T02:18:04;111992.50;;;-145.11;93.40
63033;BME280;49121;38.932;-9.018;2023-04-24T02:20:06;111992.50;;;-145.11;93.00
63033;BME280;49121;38.932;-9.018;2023-04-24T02:24:26;111992.50;;;-145.11;93.32
63033;BME280;49121;38.932;-9.018;2023-04-24T02:26:26;111992.50;;;-145.11;93.24
63033;BME280;49121;38.932;-9.018;2023-04-24T02:28:27;111992.50;;;-145.11;93.11
63033;BME280;49121;38.932;-9.018;2023-04-24T02:33:05;111992.50;;;-145.11;93.32
63033;BME280;49121;38.932;-9.018;2023-04-24T02:35:05;111992.50;;;-145.11;93.47
63033;BME280;49121;38.932;-9.018;2023-04-24T02:37:06;111992.50;;;-145.11;93.71
63033;BME280;49121;38.932;-9.018;2023-04-24T02:39:07;111992.50;;;-145.11;93.54
63033;BME280;49121;38.932;-9.018;2023-04-24T02:41:07;111992.50;;;-145.11;93.91
63033;BME280;49121;38.932;-9.018;2023-04-24T02:43:07;111992.50;;;-145.11;94.02
63033;BME280;49121;38.932;-9.018;2023-04-24T02:45:08;111992.50;;;-145.11;93.93
63033;BME280;49121;38.932;-9.018;2023-04-24T02:47:09;111992.50;;;-145.11;93.83
63033;BME280;49121;38.932;-9.018;2023-04-24T02:49:28;111992.50;;;-145.11;94.21
63033;BME280;49121;38.932;-9.018;2023-04-24T02:51:47;111992.50;;;-145.11;94.08
63033;BME280;49121;38.932;-9.018;2023-04-24T02:53:47;111992.50;;;-145.11;94.31
63033;BME280;49121;38.932;-9.018;2023-04-24T02:55:48;111992.50;;;-145.11;94.38
63033;BME280;49121;38.932;-9.018;2023-04-24T02:57:48;111992.50;;;-145.11;94.17
63033;BME280;49121;38.932;-9.018;2023-04-24T02:59:49;111992.50;;;-145.11;94.26
63033;BME280;49121;38.932;-9.018;2023-04-24T03:01:49;111992.50;;;-145.11;94.40
63033;BME280;49121;38.932;-9.018;2023-04-24T03:03:49;111992.50;;;-145.11;94.47
63033;BME280;49121;38.932;-9.018;2023-04-24T03:08:12;111992.50;;;-145.11;94.37
63033;BME280;49121;38.932;-9.018;2023-04-24T03:10:12;111992.50;;;-145.11;94.13
63033;BME280;49121;38.932;-9.018;2023-04-24T03:12:13;111992.50;;;-145.11;94.22
63033;BME280;49121;38.932;-9.018;2023-04-24T03:14:13;111992.50;;;-145.11;94.62
63033;BME280;49121;38.932;-9.018;2023-04-24T03:16:14;111992.50;;;-145.11;95.03
63033;BME280;49121;38.932;-9.018;2023-04-24T03:18:14;111992.50;;;-145.11;95.40
63033;BME280;49121;38.932;-9.018;2023-04-24T03:20:16;111992.50;;;-145.11;95.19
63033;BME280;49121;38.932;-9.018;2023-04-24T03:22:17;111992.50;;;-145.11;95.53
63033;BME280;49121;38.932;-9.018;2023-04-24T03:24:18;111992.50;;;-145.11;95.77
63033;BME280;49121;38.932;-9.018;2023-04-24T03:26:24;111992.50;;;-145.11;96.42
63033;BME280;49121;38.932;-9.018;2023-04-24T03:28:39;111992.50;;;-145.11;96.79
63033;BME280;49121;38.932;-9.018;2023-04-24T03:30:41;111992.50;;;-145.11;97.01
63033;BME280;49121;38.932;-9.018;2023-04-24T03:32:42;111992.50;;;-145.11;96.71
63033;BME280;49121;38.932;-9.018;2023-04-24T03:34:45;111992.50;;;-145.11;96.29
63033;BME280;49121;38.932;-9.018;2023-04-24T03:36:48;111992.50;;;-145.11;96.53
63033;BME280;49121;38.932;-9.018;2023-04-24T03:39:07;111992.50;;;-145.11;96.98
63033;BME280;49121;38.932;-9.018;2023-04-24T03:41:26;111992.50;;;-145.11;96.74
63033;BME280;49121;38.932;-9.018;2023-04-24T03:48:44;111992.50;;;-145.11;95.42
63033;BME280;49121;38.932;-9.018;2023-04-24T03:50:45;111992.50;;;-145.11;94.85
63033;BME280;49121;38.932;-9.018;2023-04-24T03:52:47;111992.50;;;-145.11;94.93
63033;BME280;49121;38.932;-9.018;2023-04-24T03:57:20;111992.50;;;-145.11;94.56
63033;BME280;49121;38.932;-9.018;2023-04-24T03:59:32;111992.50;;;-145.11;93.93
63033;BME280;49121;38.932;-9.018;2023-04-24T04:01:53;111992.50;;;-145.11;93.40
63033;BME280;49121;38.932;-9.018;2023-04-24T04:06:32;111992.50;;;-145.11;93.21
63033;BME280;49121;38.932;-9.018;2023-04-24T04:08:34;111992.50;;;-145.11;93.13
63033;BME280;49121;38.932;-9.018;2023-04-24T04:13:30;111992.50;;;-145.11;93.07
63033;BME280;49121;38.932;-9.018;2023-04-24T04:15:32;111992.50;;;-145.11;93.26
63033;BME280;49121;38.932;-9.018;2023-04-24T04:17:32;111992.50;;;-145.11;93.57
63033;BME280;49121;38.932;-9.018;2023-04-24T04:19:34;111992.50;;;-145.11;93.79
63033;BME280;49121;38.932;-9.018;2023-04-24T04:21:35;111992.50;;;-145.11;94.39
63033;BME280;49121;38.932;-9.018;2023-04-24T04:23:46;111992.50;;;-145.11;94.04
63033;BME280;49121;38.932;-9.018;2023-04-24T04:25:51;111992.50;;;-145.11;93.59
63033;BME280;49121;38.932;-9.018;2023-04-24T04:27:55;111992.50;;;-145.11;93.26
63033;BME280;49121;38.932;-9.018;2023-04-24T04:32:27;111992.50;;;-145.11;92.75
63033;BME280;49121;38.932;-9.018;2023-04-24T04:34:46;111992.50;;;-145.11;92.48
63033;BME280;49121;38.932;-9.018;2023-04-24T04:39:47;111992.50;;;-145.11;92.84
63033;BME280;49121;38.932;-9.018;2023-04-24T04:42:06;111992.50;;;-145.11;92.26
63033;BME280;49121;38.932;-9.018;2023-04-24T04:46:51;111992.50;;;-145.11;92.96
63033;BME280;49121;38.932;-9.018;2023-04-24T04:54:17;111992.50;;;-145.11;93.98
63033;BME280;49121;38.932;-9.018;2023-04-24T04:56:36;111992.50;;;-145.11;93.82
63033;BME280;49121;38.932;-9.018;2023-04-24T04:58:55;111992.50;;;-145.11;93.99
63033;BME280;49121;38.932;-9.018;2023-04-24T05:00:56;111992.50;;;-145.11;94.16
63033;BME280;49121;38.932;-9.018;2023-04-24T05:03:05;111992.50;;;-145.11;94.47
63033;BME280;49121;38.932;-9.018;2023-04-24T05:05:07;111992.50;;;-145.11;94.40
63033;BME280;49121;38.932;-9.018;2023-04-24T05:12:07;111992.50;;;-145.11;94.57
63033;BME280;49121;38.932;-9.018;2023-04-24T05:14:14;111992.50;;;-145.11;94.95
63033;BME280;49121;38.932;-9.018;2023-04-24T05:16:16;111992.50;;;-145.11;95.18
63033;BME280;49121;38.932;-9.018;2023-04-24T05:18:17;111992.50;;;-145.11;95.57
63033;BME280;49121;38.932;-9.018;2023-04-24T05:20:18;111992.50;;;-145.11;95.70
63033;BME280;49121;38.932;-9.018;2023-04-24T05:22:19;111992.50;;;-145.11;95.88
63033;BME280;49121;38.932;-9.018;2023-04-24T05:24:26;111992.50;;;-145.11;96.16
63033;BME280;49121;38.932;-9.018;2023-04-24T05:26:40;111992.50;;;-145.11;96.51
63033;BME280;49121;38.932;-9.018;2023-04-24T05:28:42;111992.50;;;-145.11;96.74
63033;BME280;49121;38.932;-9.018;2023-04-24T05:30:45;111992.50;;;-145.11;96.90
63033;BME280;49121;38.932;-9.018;2023-04-24T05:37:47;111992.50;;;-145.11;97.12
63033;BME280;49121;38.932;-9.018;2023-04-24T05:39:48;111992.50;;;-145.11;96.80
63033;BME280;49121;38.932;-9.018;2023-04-24T05:41:49;111992.50;;;-145.11;96.72
63033;BME280;49121;38.932;-9.018;2023-04-24T05:43:49;111992.50;;;-145.11;96.77
63033;BME280;49121;38.932;-9.018;2023-04-24T05:45:51;111992.50;;;-145.11;96.63
63033;BME280;49121;38.932;-9.018;2023-04-24T05:52:48;111992.50;;;-145.11;96.02
63033;BME280;49121;38.932;-9.018;2023-04-24T05:57:19;111992.50;;;-145.11;95.20
63033;BME280;49121;38.932;-9.018;2023-04-24T05:59:38;111992.50;;;-145.11;94.88
63033;BME280;49121;38.932;-9.018;2023-04-24T06:01:38;111992.50;;;-145.11;94.61
63033;BME280;49121;38.932;-9.018;2023-04-24T06:03:45;111992.50;;;-145.11;94.46
63033;BME280;49121;38.932;-9.018;2023-04-24T06:06:05;111992.50;;;-145.11;93.98
63033;BME280;49121;38.932;-9.018;2023-04-24T06:08:24;111992.50;;;-145.11;94.33
63033;BME280;49121;38.932;-9.018;2023-04-24T06:10:26;111992.50;;;-145.11;94.42
63033;BME280;49121;38.932;-9.018;2023-04-24T06:15:05;111992.50;;;-145.11;93.67
63033;BME280;49121;38.932;-9.018;2023-04-24T06:17:27;111992.50;;;-145.11;92.56
63033;BME280;49121;38.932;-9.018;2023-04-24T06:19:28;111992.50;;;-145.11;92.03
63033;BME280;49121;38.932;-9.018;2023-04-24T06:21:29;111992.50;;;-145.11;91.34
63033;BME280;49121;38.932;-9.018;2023-04-24T06:23:29;111992.50;;;-145.11;91.20
63033;BME280;49121;38.932;-9.018;2023-04-24T06:25:32;111992.50;;;-145.11;90.43
63033;BME280;49121;38.932;-9.018;2023-04-24T06:27:33;111992.50;;;-145.11;89.78
63033;BME280;49121;38.932;-9.018;2023-04-24T06:29:33;111992.50;;;-145.11;89.10
63033;BME280;49121;38.932;-9.018;2023-04-24T06:31:34;111992.50;;;-145.11;88.53
63033;BME280;49121;38.932;-9.018;2023-04-24T06:33:37;111992.50;;;-145.11;88.16
63033;BME280;49121;38.932;-9.018;2023-04-24T06:35:37;111992.50;;;-145.11;87.36
63033;BME280;49121;38.932;-9.018;2023-04-24T06:37:41;111992.50;;;-145.11;87.13
63033;BME280;49121;38.932;-9.018;2023-04-24T06:39:42;111992.50;;;-145.11;86.35
63033;BME280;49121;38.932;-9.018;2023-04-24T06:42:01;111992.50;;;-145.11;85.19
63033;BME280;49121;38.932;-9.018;2023-04-24T06:44:02;111992.50;;;-145.11;83.09
63033;BME280;49121;38.932;-9.018;2023-04-24T06:46:02;111992.50;;;-145.11;77.61
63033;BME280;49121;38.932;-9.018;2023-04-24T06:48:03;111992.50;;;-145.11;73.35
63033;BME280;49121;38.932;-9.018;2023-04-24T06:50:04;111992.50;;;-145.11;69.32
63033;BME280;49121;38.932;-9.018;2023-04-24T06:52:05;111992.50;;;-145.11;66.19
63033;BME280;49121;38.932;-9.018;2023-04-24T06:54:06;111992.50;;;-145.11;63.26
63033;BME280;49121;38.932;-9.018;2023-04-24T06:56:06;111992.50;;;-145.11;59.96
63033;BME280;49121;38.932;-9.018;2023-04-24T06:58:07;111992.50;;;-145.11;58.69
63033;BME280;49121;38.932;-9.018;2023-04-24T07:00:08;111992.50;;;-145.11;57.44
63033;BME280;49121;38.932;-9.018;2023-04-24T07:02:09;111992.50;;;-145.11;56.91
63033;BME280;49121;38.932;-9.018;2023-04-24T07:04:10;111992.50;;;-145.11;55.98
63033;BME280;49121;38.932;-9.018;2023-04-24T07:06:17;111992.50;;;-145.11;55.45
63033;BME280;49121;38.932;-9.018;2023-04-24T07:08:18;111992.50;;;-145.11;54.92
63033;BME280;49121;38.932;-9.018;2023-04-24T07:10:20;111992.50;;;-145.11;54.58
63033;BME280;49121;38.932;-9.018;2023-04-24T07:12:21;111992.50;;;-145.11;54.80
63033;BME280;49121;38.932;-9.018;2023-04-24T07:14:22;111992.50;;;-145.11;53.65
63033;BME280;49121;38.932;-9.018;2023-04-24T07:16:22;111992.50;;;-145.11;53.26
63033;BME280;49121;38.932;-9.018;2023-04-24T07:18:23;111992.50;;;-145.11;52.45
63033;BME280;49121;38.932;-9.018;2023-04-24T07:20:25;111992.50;;;-145.11;51.70
63033;BME280;49121;38.932;-9.018;2023-04-24T07:22:26;111992.50;;;-145.11;51.89
63033;BME280;49121;38.932;-9.018;2023-04-24T07:24:26;111992.50;;;-145.11;52.00
63033;BME280;49121;38.932;-9.018;2023-04-24T07:26:28;111992.50;;;-145.11;52.01
63033;BME280;49121;38.932;-9.018;2023-04-24T07:28:28;111992.50;;;-145.11;52.16
63033;BME280;49121;38.932;-9.018;2023-04-24T07:30:31;111992.50;;;-145.11;51.99
63033;BME280;49121;38.932;-9.018;2023-04-24T07:32:33;111992.50;;;-145.11;52.22
63033;BME280;49121;38.932;-9.018;2023-04-24T07:34:33;111992.50;;;-145.11;51.41
63033;BME280;49121;38.932;-9.018;2023-04-24T07:36:34;111992.50;;;-145.11;50.94
63033;BME280;49121;38.932;-9.018;2023-04-24T07:38:34;111992.50;;;-145.11;51.09
63033;BME280;49121;38.932;-9.018;2023-04-24T07:40:54;111992.50;;;-145.11;52.46
63033;BME280;49121;38.932;-9.018;2023-04-24T07:42:55;111992.50;;;-145.11;50.57
63033;BME280;49121;38.932;-9.018;2023-04-24T07:45:14;111992.50;;;-145.11;53.14
63033;BME280;49121;38.932;-9.018;2023-04-24T07:47:15;111992.50;;;-145.11;51.31
63033;BME280;49121;38.932;-9.018;2023-04-24T07:49:16;111992.50;;;-145.11;53.20
63033;BME280;49121;38.932;-9.018;2023-04-24T07:51:16;111992.50;;;-145.11;53.25
63033;BME280;49121;38.932;-9.018;2023-04-24T07:53:17;111992.50;;;-145.11;49.45
63033;BME280;49121;38.932;-9.018;2023-04-24T07:55:17;111992.50;;;-145.11;49.07
63033;BME280;49121;38.932;-9.018;2023-04-24T07:57:18;111992.50;;;-145.11;47.69
63033;BME280;49121;38.932;-9.018;2023-04-24T07:59:18;111992.50;;;-145.11;47.19
63033;BME280;49121;38.932;-9.018;2023-04-24T08:01:18;111992.50;;;-145.11;47.43
63033;BME280;49121;38.932;-9.018;2023-04-24T08:03:20;111992.50;;;-145.11;47.27
63033;BME280;49121;38.932;-9.018;2023-04-24T08:05:21;111992.50;;;-145.11;48.17
63033;BME280;49121;38.932;-9.018;2023-04-24T08:07:22;111992.50;;;-145.11;47.87
63033;BME280;49121;38.932;-9.018;2023-04-24T08:09:23;111992.50;;;-145.11;46.77
63033;BME280;49121;38.932;-9.018;2023-04-24T08:11:24;111992.50;;;-145.11;46.88
63033;BME280;49121;38.932;-9.018;2023-04-24T08:13:24;111992.50;;;-145.11;45.21
63033;BME280;49121;38.932;-9.018;2023-04-24T08:15:25;111992.50;;;-145.11;44.19
63033;BME280;49121;38.932;-9.018;2023-04-24T08:17:26;111992.50;;;-145.11;44.59
63033;BME280;49121;38.932;-9.018;2023-04-24T08:19:26;111992.50;;;-145.11;44.62
63033;BME280;49121;38.932;-9.018;2023-04-24T08:28:57;111992.50;;;-145.11;43.49
63033;BME280;49121;38.932;-9.018;2023-04-24T08:30:58;111992.50;;;-145.11;43.86
63033;BME280;49121;38.932;-9.018;2023-04-24T08:32:58;111992.50;;;-145.11;42.45
63033;BME280;49121;38.932;-9.018;2023-04-24T08:34:59;111992.50;;;-145.11;43.06
63033;BME280;49121;38.932;-9.018;2023-04-24T08:37:00;111992.50;;;-145.11;42.14
63033;BME280;49121;38.932;-9.018;2023-04-24T08:39:00;111992.50;;;-145.11;40.73
63033;BME280;49121;38.932;-9.018;2023-04-24T08:41:01;111992.50;;;-145.11;40.85
63033;BME280;49121;38.932;-9.018;2023-04-24T08:43:01;111992.50;;;-145.11;41.35
63033;BME280;49121;38.932;-9.018;2023-04-24T08:45:03;111992.50;;;-145.11;41.33
63033;BME280;49121;38.932;-9.018;2023-04-24T08:47:04;111992.50;;;-145.11;41.86
63033;BME280;49121;38.932;-9.018;2023-04-24T08:49:05;111992.50;;;-145.11;40.38
63033;BME280;49121;38.932;-9.018;2023-04-24T08:51:07;111992.50;;;-145.11;41.10
63033;BME280;49121;38.932;-9.018;2023-04-24T08:53:07;111992.50;;;-145.11;39.98
63033;BME280;49121;38.932;-9.018;2023-04-24T08:55:08;111992.50;;;-145.11;38.50
63033;BME280;49121;38.932;-9.018;2023-04-24T08:57:10;111992.50;;;-145.11;37.83
63033;BME280;49121;38.932;-9.018;2023-04-24T08:59:11;111992.50;;;-145.11;37.30
63033;BME280;49121;38.932;-9.018;2023-04-24T09:01:15;111992.50;;;-145.11;37.37
63033;BME280;49121;38.932;-9.018;2023-04-24T09:03:16;111992.50;;;-145.11;38.48
63033;BME280;49121;38.932;-9.018;2023-04-24T09:05:18;111992.50;;;-145.11;38.47
63033;BME280;49121;38.932;-9.018;2023-04-24T09:07:21;111992.50;;;-145.11;38.60
63033;BME280;49121;38.932;-9.018;2023-04-24T09:09:30;111992.50;;;-145.11;38.45
63033;BME280;49121;38.932;-9.018;2023-04-24T09:11:32;111992.50;;;-145.11;38.58
63033;BME280;49121;38.932;-9.018;2023-04-24T09:13:35;111992.50;;;-145.11;38.12
63033;BME280;49121;38.932;-9.018;2023-04-24T09:15:36;111992.50;;;-145.11;37.82
63033;BME280;49121;38.932;-9.018;2023-04-24T09:17:36;111992.50;;;-145.11;39.39
63033;BME280;49121;38.932;-9.018;2023-04-24T09:19:38;111992.50;;;-145.11;39.87
63033;BME280;49121;38.932;-9.018;2023-04-24T09:21:38;111992.50;;;-145.11;38.25
63033;BME280;49121;38.932;-9.018;2023-04-24T09:23:39;111992.50;;;-145.11;39.40
63033;BME280;49121;38.932;-9.018;2023-04-24T09:25:41;111992.50;;;-145.11;39.70
63033;BME280;49121;38.932;-9.018;2023-04-24T09:27:44;111992.50;;;-145.11;40.16
63033;BME280;49121;38.932;-9.018;2023-04-24T09:29:55;111992.50;;;-145.11;39.25
63033;BME280;49121;38.932;-9.018;2023-04-24T09:31:56;111992.50;;;-145.11;39.00
63033;BME280;49121;38.932;-9.018;2023-04-24T09:34:03;111992.50;;;-145.11;39.19
63033;BME280;49121;38.932;-9.018;2023-04-24T09:36:07;111992.50;;;-145.11;36.92
63033;BME280;49121;38.932;-9.018;2023-04-24T09:38:07;111992.50;;;-145.11;37.48
63033;BME280;49121;38.932;-9.018;2023-04-24T09:40:18;111992.50;;;-145.11;37.71
63033;BME280;49121;38.932;-9.018;2023-04-24T09:42:19;111992.50;;;-145.11;36.87
63033;BME280;49121;38.932;-9.018;2023-04-24T09:49:35;111992.50;;;-145.11;35.46
63033;BME280;49121;38.932;-9.018;2023-04-24T09:51:39;111992.50;;;-145.11;34.20
63033;BME280;49121;38.932;-9.018;2023-04-24T09:53:45;111992.50;;;-145.11;36.11
63033;BME280;49121;38.932;-9.018;2023-04-24T09:55:48;111992.50;;;-145.11;35.94
63033;BME280;49121;38.932;-9.018;2023-04-24T09:57:51;111992.50;;;-145.11;35.79
63033;BME280;49121;38.932;-9.018;2023-04-24T09:59:53;111992.50;;;-145.11;35.55
63033;BME280;49121;38.932;-9.018;2023-04-24T10:01:53;111992.50;;;-145.11;36.10
63033;BME280;49121;38.932;-9.018;2023-04-24T10:03:54;111992.50;;;-145.11;36.16
63033;BME280;49121;38.932;-9.018;2023-04-24T10:05:54;111992.50;;;-145.11;36.88
63033;BME280;49121;38.932;-9.018;2023-04-24T10:10:02;111992.50;;;-145.11;35.86
63033;BME280;49121;38.932;-9.018;2023-04-24T10:12:02;111992.50;;;-145.11;35.59
63033;BME280;49121;38.932;-9.018;2023-04-24T10:14:03;111992.50;;;-145.11;34.11
63033;BME280;49121;38.932;-9.018;2023-04-24T10:16:04;111992.50;;;-145.11;35.23
63033;BME280;49121;38.932;-9.018;2023-04-24T10:18:05;111992.50;;;-145.11;34.72
63033;BME280;49121;38.932;-9.018;2023-04-24T10:20:06;111992.50;;;-145.11;33.27
63033;BME280;49121;38.932;-9.018;2023-04-24T10:22:08;111992.50;;;-145.11;32.67
63033;BME280;49121;38.932;-9.018;2023-04-24T10:24:09;111992.50;;;-145.11;33.59
63033;BME280;49121;38.932;-9.018;2023-04-24T10:26:11;111992.50;;;-145.11;32.61
63033;BME280;49121;38.932;-9.018;2023-04-24T10:28:17;111992.50;;;-145.11;33.89
63033;BME280;49121;38.932;-9.018;2023-04-24T10:30:19;111992.50;;;-145.11;34.63
63033;BME280;49121;38.932;-9.018;2023-04-24T10:32:20;111992.50;;;-145.11;35.33
63033;BME280;49121;38.932;-9.018;2023-04-24T10:34:22;111992.50;;;-145.11;36.62
63033;BME280;49121;38.932;-9.018;2023-04-24T10:36:23;111992.50;;;-145.11;37.25
63033;BME280;49121;38.932;-9.018;2023-04-24T10:38:26;111992.50;;;-145.11;37.57
63033;BME280;49121;38.932;-9.018;2023-04-24T10:40:33;111992.50;;;-145.11;37.60
63033;BME280;49121;38.932;-9.018;2023-04-24T10:44:54;111992.50;;;-145.11;40.12
63033;BME280;49121;38.932;-9.018;2023-04-24T10:46:56;111992.50;;;-145.11;39.09
63033;BME280;49121;38.932;-9.018;2023-04-24T10:48:59;111992.50;;;-145.11;40.16
63033;BME280;49121;38.932;-9.018;2023-04-24T10:50:59;111992.50;;;-145.11;39.68
63033;BME280;49121;38.932;-9.018;2023-04-24T10:53:06;111992.50;;;-145.11;39.35
63033;BME280;49121;38.932;-9.018;2023-04-24T10:55:07;111992.50;;;-145.11;40.87
63033;BME280;49121;38.932;-9.018;2023-04-24T10:59:24;111992.50;;;-145.11;40.07
63033;BME280;49121;38.932;-9.018;2023-04-24T11:03:28;111992.50;;;-145.11;40.27
63033;BME280;49121;38.932;-9.018;2023-04-24T11:10:26;111992.50;;;-145.11;39.38
63033;BME280;49121;38.932;-9.018;2023-04-24T11:12:28;111992.50;;;-145.11;39.64
63033;BME280;49121;38.932;-9.018;2023-04-24T11:14:28;111992.50;;;-145.11;40.23
63033;BME280;49121;38.932;-9.018;2023-04-24T11:18:38;111992.50;;;-145.11;39.64
63033;BME280;49121;38.932;-9.018;2023-04-24T11:20:59;111992.50;;;-145.11;38.84
63033;BME280;49121;38.932;-9.018;2023-04-24T11:23:18;111992.50;;;-145.11;38.56
63033;BME280;49121;38.932;-9.018;2023-04-24T11:25:18;111992.50;;;-145.11;38.58
63033;BME280;49121;38.932;-9.018;2023-04-24T11:27:20;111992.50;;;-145.11;38.94
63033;BME280;49121;38.932;-9.018;2023-04-24T11:29:21;111992.50;;;-145.11;38.69
63033;BME280;49121;38.932;-9.018;2023-04-24T11:31:37;111992.50;;;-145.11;39.21
63033;BME280;49121;38.932;-9.018;2023-04-24T11:33:38;111992.50;;;-145.11;38.67
63033;BME280;49121;38.932;-9.018;2023-04-24T11:35:39;111992.50;;;-145.11;38.68
63033;BME280;49121;38.932;-9.018;2023-04-24T11:37:41;111992.50;;;-145.11;38.37
63033;BME280;49121;38.932;-9.018;2023-04-24T11:39:42;111992.50;;;-145.11;38.20
63033;BME280;49121;38.932;-9.018;2023-04-24T11:41:42;111992.50;;;-145.11;38.72
63033;BME280;49121;38.932;-9.018;2023-04-24T11:43:52;111992.50;;;-145.11;39.06
63033;BME280;49121;38.932;-9.018;2023-04-24T11:50:51;111992.50;;;-145.11;38.71
63033;BME280;49121;38.932;-9.018;2023-04-24T11:52:52;111992.50;;;-145.11;38.79
63033;BME280;49121;38.932;-9.018;2023-04-24T11:54:53;111992.50;;;-145.11;38.78
63033;BME280;49121;38.932;-9.018;2023-04-24T11:56:55;111992.50;;;-145.11;38.43
63033;BME280;49121;38.932;-9.018;2023-04-24T11:58:56;111992.50;;;-145.11;38.58
63033;BME280;49121;38.932;-9.018;2023-04-24T12:00:56;111992.50;;;-145.11;39.22
63033;BME280;49121;38.932;-9.018;2023-04-24T12:03:10;111992.50;;;-145.11;39.04
63033;BME280;49121;38.932;-9.018;2023-04-24T12:08:10;111992.50;;;-145.11;37.63
63033;BME280;49121;38.932;-9.018;2023-04-24T12:10:26;111992.50;;;-145.11;37.61
63033;BME280;49121;38.932;-9.018;2023-04-24T12:12:27;111992.50;;;-145.11;38.36
63033;BME280;49121;38.932;-9.018;2023-04-24T12:14:33;111992.50;;;-145.11;38.58
63033;BME280;49121;38.932;-9.018;2023-04-24T12:17:00;111992.50;;;-145.11;38.24